Time;durP1;ratioP1;P1;durP2;ratioP2;P2;SDS_P1;SDS_P2;PMS_P1;PMS_P2;Temp;Humidity;BMP_temperature;BMP_pressure;BME280_temperature;BME280_humidity;BME280_pressure;Samples;Min_cycle;Max_cycle;Signal;HPM_P1;HPM_P2
2022/12/02 07:13:21;;;;;;;15.50;7.60;;;;;;;5.54;76.22;101426.50;106135;1295;21965;-69
2022/12/02 07:15:46;;;;;;;18.30;7.90;;;;;;;6.12;72.06;101420.61;105891;1307;23818;-70
2022/12/02 07:18:13;;;;;;;19.30;8.00;;;;;;;6.42;70.39;101421.98;106161;1304;21984;-71
2022/12/02 07:20:42;;;;;;;14.10;7.70;;;;;;;6.63;69.41;101421.36;106137;1302;21971;-69
2022/12/02 07:23:35;;;;;;;19.40;6.30;;;;;;;6.81;68.90;101422.25;105801;1304;379459;-70
2022/12/02 07:26:02;;;;;;;16.00;5.70;;;;;;;6.93;68.42;101419.70;106051;1305;21967;-68
2022/12/02 07:28:34;;;;;;;10.10;5.10;;;;;;;7.06;67.83;101419.59;106417;1303;22696;-71
2022/12/02 07:31:16;;;;;;;10.10;4.00;;;;;;;7.12;67.61;101417.79;106257;1301;22854;-69
2022/12/02 07:33:44;;;;;;;10.80;4.00;;;;;;;7.24;67.12;101418.70;106288;1299;21970;-71
2022/12/02 07:36:11;;;;;;;14.70;4.80;;;;;;;7.37;66.75;101412.83;106288;1304;24389;-69
2022/12/02 07:38:37;;;;;;;12.60;3.80;;;;;;;7.38;66.57;101415.98;106395;1304;22030;-70
2022/12/02 07:41:03;;;;;;;12.60;3.70;;;;;;;7.43;66.07;101421.48;105991;1304;22125;-69
2022/12/02 07:43:30;;;;;;;8.70;3.10;;;;;;;7.52;66.04;101422.34;106153;1303;21956;-69
2022/12/02 07:45:56;;;;;;;11.30;3.20;;;;;;;7.68;65.47;101422.94;106277;1302;21967;-70
2022/12/02 07:48:22;;;;;;;8.80;3.20;;;;;;;7.76;65.03;101419.23;106221;1303;21999;-70
2022/12/02 15:19:38;;;;;;;8.70;5.50;;;;;;;2.57;85.19;101565.78;106098;1293;548199;-70
2022/12/02 15:22:07;;;;;;;12.80;5.90;;;;;;;4.59;76.69;101562.54;106184;1303;21968;-70
2022/12/02 15:24:34;;;;;;;9.70;5.90;;;;;;;5.12;73.80;101556.98;106230;1295;21975;-71
2022/12/02 15:27:01;;;;;;;8.70;5.90;;;;;;;5.38;72.26;101557.20;106242;1303;21957;-69
2022/12/02 15:29:28;;;;;;;8.00;4.80;;;;;;;5.62;71.09;101555.76;106239;1295;24438;-70
2022/12/02 15:31:55;;;;;;;7.30;3.70;;;;;;;5.85;69.87;101553.94;105977;1300;391104;-69
2022/12/02 15:34:21;;;;;;;5.70;3.80;;;;;;;6.00;69.38;101558.15;106305;1300;23900;-69
2022/12/02 15:36:47;;;;;;;6.60;3.40;;;;;;;6.09;69.05;101559.98;106284;1296;23072;-70
2022/12/02 15:39:12;;;;;;;8.40;4.80;;;;;;;6.18;68.61;101560.54;106280;1300;23761;-70
2022/12/02 15:41:39;;;;;;;5.60;3.30;;;;;;;6.24;68.15;101558.42;106424;1300;21961;-70
2022/12/02 15:44:05;;;;;;;6.80;3.20;;;;;;;6.32;68.10;101559.30;106284;1300;21967;-70
2022/12/02 15:46:30;;;;;;;5.10;3.20;;;;;;;6.45;67.68;101560.30;106386;1300;21964;-70
2022/12/02 15:48:57;;;;;;;6.20;3.50;;;;;;;6.54;67.20;101561.23;106042;1300;22694;-70
2022/12/02 15:51:22;;;;;;;7.30;4.00;;;;;;;6.57;67.03;101563.90;106387;1298;21961;-69
2022/12/02 15:53:49;;;;;;;9.10;4.50;;;;;;;6.55;66.86;101563.68;106270;1300;21963;-69
2022/12/02 15:56:15;;;;;;;7.40;3.80;;;;;;;6.64;66.42;101562.49;106383;1300;22003;-70
2022/12/02 15:58:40;;;;;;;8.80;3.90;;;;;;;6.63;66.05;101563.00;106314;1300;21957;-69
2022/12/02 16:01:06;;;;;;;7.20;3.30;;;;;;;6.76;65.53;101565.20;106396;1301;21956;-69
2022/12/02 16:06:34;;;;;;;8.10;5.00;;;;;;;6.70;65.37;101567.69;105103;1310;547843;-70
2022/12/02 16:09:00;;;;;;;9.40;4.30;;;;;;;6.84;65.17;101569.22;104726;1312;1002990;-71
2022/12/02 16:11:26;;;;;;;10.90;5.20;;;;;;;6.88;65.08;101567.04;105277;1313;21973;-70
2022/12/02 16:13:53;;;;;;;10.90;5.70;;;;;;;6.90;65.08;101563.78;105308;1312;22000;-69
2022/12/02 16:16:19;;;;;;;10.10;5.20;;;;;;;6.93;64.83;101566.80;105217;1309;21969;-70
2022/12/02 16:18:45;;;;;;;7.90;4.10;;;;;;;6.82;64.83;101570.04;105149;1313;221142;-70
2022/12/02 16:21:11;;;;;;;10.10;4.70;;;;;;;6.62;65.22;101575.70;105564;1309;21984;-69
2022/12/02 16:23:36;;;;;;;10.60;5.00;;;;;;;6.59;65.40;101577.05;105330;1313;22606;-69
2022/12/02 16:26:02;;;;;;;10.90;4.90;;;;;;;6.68;65.14;101577.60;105537;1309;22046;-70
2022/12/02 16:28:28;;;;;;;17.40;10.90;;;;;;;6.69;65.28;101575.16;105561;1310;21972;-69
2022/12/02 16:30:54;;;;;;;20.10;10.60;;;;;;;6.72;65.01;101574.54;104759;1314;1002467;-69
2022/12/02 16:33:19;;;;;;;16.60;8.50;;;;;;;6.75;65.08;101580.55;105525;1310;21973;-71
2022/12/02 16:35:45;;;;;;;29.70;18.10;;;;;;;6.76;64.98;101583.34;105511;1309;23619;-70
2022/12/02 16:38:13;;;;;;;50.10;30.50;;;;;;;6.80;65.45;101587.62;105609;1304;21979;-68
2022/12/02 16:40:39;;;;;;;42.40;25.40;;;;;;;6.90;65.71;101584.88;105567;1313;21950;-70
2022/12/02 16:43:05;;;;;;;34.20;19.80;;;;;;;6.92;65.55;101582.11;105657;1309;21979;-70
2022/12/02 16:45:30;;;;;;;18.20;10.00;;;;;;;6.97;65.49;101583.10;105593;1309;21966;-69
2022/12/02 16:47:57;;;;;;;14.90;8.60;;;;;;;6.71;65.80;101587.77;105510;1309;23737;-70
2022/12/02 16:50:23;;;;;;;19.30;12.20;;;;;;;6.60;65.83;101589.61;104928;1309;1003149;-70
2022/12/02 16:52:49;;;;;;;13.50;7.60;;;;;;;6.58;65.64;101589.75;105551;1309;21969;-68
2022/12/02 16:55:14;;;;;;;13.20;6.60;;;;;;;6.50;65.47;101589.36;105614;1310;21980;-69
2022/12/02 16:57:40;;;;;;;20.90;9.60;;;;;;;6.48;65.80;101592.27;105545;1310;21985;-69
2022/12/02 17:00:07;;;;;;;15.80;8.20;;;;;;;6.52;65.75;101592.22;105526;1309;23545;-69
2022/12/02 17:02:34;;;;;;;11.60;7.30;;;;;;;6.63;65.78;101593.88;105441;1313;21965;-69
2022/12/02 17:05:00;;;;;;;18.80;7.80;;;;;;;6.70;65.50;101594.90;105616;1309;21990;-72
2022/12/02 17:07:26;;;;;;;15.00;6.50;;;;;;;6.70;65.27;101597.35;105543;1313;21968;-70
2022/12/02 17:09:53;;;;;;;18.80;9.50;;;;;;;6.68;65.07;101601.67;104860;1309;1002417;-71
2022/12/02 17:24:55;;;;;;;14.90;8.30;;;;;;;4.46;74.34;101620.91;105140;1307;547961;-61
2022/12/02 17:27:21;;;;;;;13.30;6.20;;;;;;;5.44;69.95;101618.98;105609;1313;21987;-61
2022/12/02 17:29:47;;;;;;;21.20;12.40;;;;;;;5.62;69.18;101617.77;105401;1312;21984;-62
2022/12/02 17:32:13;;;;;;;47.20;28.30;;;;;;;5.83;68.23;101616.23;105377;1312;21987;-65
2022/12/02 17:34:40;;;;;;;39.20;23.40;;;;;;;6.06;67.40;101611.64;105459;1312;23073;-63
2022/12/02 17:37:07;;;;;;;153.00;103.50;;;;;;;6.05;67.57;101610.05;105219;1312;207714;-64
2022/12/02 17:39:33;;;;;;;51.60;34.90;;;;;;;6.18;67.91;101610.38;105558;1305;21967;-63
2022/12/02 17:41:59;;;;;;;28.50;18.40;;;;;;;6.38;66.89;101608.96;105621;1310;21967;-63
2022/12/02 17:44:26;;;;;;;23.30;16.90;;;;;;;6.48;65.94;101605.02;105573;1310;21974;-61
2022/12/02 17:46:51;;;;;;;24.30;17.90;;;;;;;6.48;65.91;101602.75;105557;1310;21962;-63
2022/12/02 17:49:18;;;;;;;28.30;19.70;;;;;;;6.44;65.18;101602.84;105676;1297;21974;-60
2022/12/02 17:51:44;;;;;;;18.20;14.10;;;;;;;6.42;64.49;101601.39;105533;1310;22022;-63
2022/12/02 17:54:16;;;;;;;14.70;9.70;;;;;;;6.43;64.41;101597.58;105616;1310;23644;-63
2022/12/02 17:56:42;;;;;;;15.70;9.50;;;;;;;6.16;65.59;101600.06;105659;1308;21979;-62
2022/12/02 17:59:14;;;;;;;15.30;9.20;;;;;;;6.22;65.82;101595.66;105679;1310;23841;-62
2022/12/02 18:01:44;;;;;;;12.90;8.30;;;;;;;6.22;65.51;101593.23;105619;1310;22051;-60
2022/12/02 18:04:13;;;;;;;13.60;7.50;;;;;;;6.08;65.53;101595.84;105584;1310;23605;-61
2022/12/02 18:06:39;;;;;;;11.10;6.60;;;;;;;5.99;65.91;101593.52;105612;1310;21960;-62
2022/12/02 18:09:04;;;;;;;10.90;6.90;;;;;;;5.98;65.43;101587.71;105579;1306;21980;-63
2022/12/02 18:11:32;;;;;;;11.60;6.10;;;;;;;6.07;65.25;101586.58;105589;1310;21977;-61
2022/12/02 18:13:58;;;;;;;11.40;5.50;;;;;;;6.17;64.94;101588.23;105675;1310;21980;-61
2022/12/02 18:16:24;;;;;;;11.70;5.30;;;;;;;6.24;64.28;101589.96;105616;1301;21977;-65
2022/12/02 18:18:52;;;;;;;9.10;5.20;;;;;;;6.19;64.07;101588.98;105559;1307;21987;-63
2022/12/02 18:21:18;;;;;;;10.30;4.80;;;;;;;6.30;64.06;101589.59;105663;1310;21980;-63
2022/12/02 18:23:45;;;;;;;8.10;4.60;;;;;;;6.32;64.10;101591.02;105703;1298;21989;-62
2022/12/02 18:26:13;;;;;;;27.10;18.30;;;;;;;6.35;64.14;101589.02;105580;1310;21971;-64
2022/12/02 18:28:40;;;;;;;23.50;14.00;;;;;;;6.37;64.29;101594.14;105620;1310;21964;-63
2022/12/02 18:31:06;;;;;;;19.40;12.60;;;;;;;6.26;64.06;101594.39;105586;1308;21967;-64
2022/12/02 18:33:33;;;;;;;17.30;10.10;;;;;;;6.24;64.22;101591.21;105548;1302;21972;-60
2022/12/02 18:36:00;;;;;;;13.50;8.40;;;;;;;6.28;64.28;101590.59;105545;1310;21978;-61
2022/12/02 18:38:29;;;;;;;15.90;8.90;;;;;;;6.24;64.11;101590.30;105562;1309;22769;-64
2022/12/02 18:40:55;;;;;;;11.00;5.80;;;;;;;6.11;64.68;101591.73;105621;1309;21985;-63
2022/12/02 18:43:22;;;;;;;12.40;6.90;;;;;;;6.07;64.83;101587.27;105563;1308;23178;-60
2022/12/02 18:45:48;;;;;;;15.10;10.30;;;;;;;6.10;64.62;101591.36;105555;1312;21980;-59
2022/12/02 18:48:18;;;;;;;13.70;8.40;;;;;;;6.13;64.21;101592.30;105630;1305;22030;-61
2022/12/02 18:50:45;;;;;;;16.80;9.10;;;;;;;6.10;64.41;101592.77;105616;1310;23078;-61
2022/12/02 18:53:16;;;;;;;15.90;9.50;;;;;;;6.19;64.32;101591.23;105571;1309;21987;-63
2022/12/02 18:55:41;;;;;;;;;;;;;;;6.08;64.51;101595.16;105638;1310;21973;-61
2022/12/02 18:58:09;;;;;;;13.20;7.20;;;;;;;6.03;64.54;101597.62;105578;1307;21961;-63
2022/12/02 19:00:37;;;;;;;10.50;6.30;;;;;;;5.91;64.82;101601.83;105559;1301;22004;-62
2022/12/02 19:03:04;;;;;;;10.20;6.20;;;;;;;5.93;65.07;101605.90;105540;1310;23733;-63
2022/12/02 19:05:30;;;;;;;12.50;6.60;;;;;;;5.96;64.75;101605.95;105550;1301;21976;-61
2022/12/02 19:07:56;;;;;;;15.50;7.50;;;;;;;6.09;64.51;101604.56;105641;1309;21966;-61
2022/12/02 19:10:23;;;;;;;12.90;7.10;;;;;;;6.14;64.21;101609.08;105538;1309;21966;-62
2022/12/02 19:12:49;;;;;;;13.30;5.80;;;;;;;6.11;64.57;101612.14;105552;1309;21969;-63
2022/12/02 19:15:16;;;;;;;11.40;6.10;;;;;;;6.20;64.28;101612.00;105609;1309;21966;-61
2022/12/02 19:17:43;;;;;;;16.40;7.90;;;;;;;6.34;63.71;101612.17;105620;1310;22014;-63
2022/12/02 19:20:10;;;;;;;11.40;5.90;;;;;;;6.31;63.69;101609.48;105631;1305;21972;-62
2022/12/02 19:22:36;;;;;;;13.70;5.80;;;;;;;6.26;63.92;101609.02;105607;1307;22032;-63
2022/12/02 19:25:04;;;;;;;12.90;6.80;;;;;;;6.23;64.03;101612.09;105576;1309;23779;-61
2022/12/02 19:27:30;;;;;;;15.00;6.30;;;;;;;6.26;63.71;101614.08;105618;1309;23697;-62
2022/12/02 19:29:56;;;;;;;11.20;5.80;;;;;;;6.27;63.66;101611.81;105586;1309;21978;-63
2022/12/02 19:32:23;;;;;;;12.90;6.50;;;;;;;6.28;63.38;101609.95;105569;1309;21970;-60
2022/12/02 19:34:48;;;;;;;12.00;6.50;;;;;;;6.24;63.47;101608.27;105586;1309;21964;-62
2022/12/02 19:37:14;;;;;;;10.50;5.50;;;;;;;6.20;63.39;101609.73;105595;1309;21975;-63
2022/12/02 19:39:41;;;;;;;13.70;6.10;;;;;;;6.21;63.18;101610.99;105590;1309;21976;-61
2022/12/02 19:42:10;;;;;;;14.20;6.70;;;;;;;6.17;63.21;101611.42;105647;1309;21972;-60
2022/12/02 19:44:37;;;;;;;15.70;6.70;;;;;;;6.14;63.20;101614.11;105599;1308;23148;-61
2022/12/02 19:47:03;;;;;;;13.50;6.10;;;;;;;6.15;62.88;101615.02;105555;1301;23201;-63
2022/12/02 19:49:32;;;;;;;11.10;5.90;;;;;;;6.14;63.13;101618.82;105586;1309;21967;-60
2022/12/02 19:51:59;;;;;;;;;;;;;;;6.15;63.04;101616.92;105697;1308;21952;-60
2022/12/02 19:54:25;;;;;;;10.50;5.30;;;;;;;6.15;62.71;101619.55;105562;1309;21964;-60
2022/12/02 19:56:51;;;;;;;13.30;5.90;;;;;;;6.16;62.88;101620.98;105579;1308;21979;-62
2022/12/02 19:59:17;;;;;;;11.20;5.70;;;;;;;6.16;62.15;101618.35;105581;1309;23068;-60
2022/12/02 20:01:42;;;;;;;10.80;5.20;;;;;;;6.08;62.66;101617.27;105572;1309;23203;-63
2022/12/02 20:04:09;;;;;;;12.30;5.70;;;;;;;6.04;62.50;101614.21;105594;1309;21964;-63
2022/12/02 20:06:36;;;;;;;14.00;6.30;;;;;;;6.04;62.66;101620.66;105645;1308;21978;-60
2022/12/02 20:09:03;;;;;;;14.20;6.10;;;;;;;5.99;62.84;101621.03;105627;1309;21969;-60
2022/12/02 20:11:30;;;;;;;12.90;5.60;;;;;;;5.96;62.62;101621.83;105602;1308;22030;-59
2022/12/02 20:13:56;;;;;;;16.50;6.90;;;;;;;5.98;62.60;101626.73;105566;1309;21973;-62
2022/12/02 20:16:22;;;;;;;11.10;5.60;;;;;;;6.03;62.43;101623.94;105579;1308;23726;-64
2022/12/02 20:18:48;;;;;;;12.40;6.20;;;;;;;6.04;62.21;101621.54;105571;1309;21974;-64
2022/12/02 20:21:14;;;;;;;14.00;5.60;;;;;;;6.01;62.08;101617.27;105580;1309;21962;-64
2022/12/02 20:23:42;;;;;;;13.20;5.30;;;;;;;5.99;61.92;101616.48;105662;1309;24556;-61
2022/12/02 20:26:10;;;;;;;9.30;5.10;;;;;;;5.96;62.16;101616.77;105634;1307;21974;-62
2022/12/02 20:28:36;;;;;;;9.70;4.70;;;;;;;5.95;61.96;101620.06;105664;1309;22439;-64
2022/12/02 20:31:02;;;;;;;11.00;5.30;;;;;;;5.97;62.08;101618.52;105518;1308;22017;-63
2022/12/02 20:33:27;;;;;;;17.20;6.40;;;;;;;5.96;62.23;101613.80;105652;1309;21963;-63
2022/12/02 20:35:53;;;;;;;15.00;6.00;;;;;;;5.92;62.11;101617.70;105586;1305;21959;-64
2022/12/02 20:38:19;;;;;;;12.40;6.00;;;;;;;5.87;62.15;101621.92;105612;1307;22000;-61
2022/12/02 20:40:47;;;;;;;13.40;7.30;;;;;;;5.84;62.12;101623.40;105663;1308;22018;-63
2022/12/02 20:43:13;;;;;;;17.30;8.00;;;;;;;5.81;62.39;101626.11;105621;1309;21963;-63
2022/12/02 20:45:40;;;;;;;15.10;7.00;;;;;;;5.81;62.30;101630.12;105621;1308;23793;-61
2022/12/02 20:48:06;;;;;;;16.50;6.70;;;;;;;5.80;62.51;101628.36;105570;1309;22013;-63
2022/12/02 20:50:33;;;;;;;16.90;6.90;;;;;;;5.81;62.35;101632.38;105587;1309;22029;-63
2022/12/02 20:52:59;;;;;;;17.50;7.90;;;;;;;5.81;62.33;101632.38;105621;1307;21964;-60
2022/12/02 20:55:24;;;;;;;14.90;6.70;;;;;;;5.81;61.97;101632.21;105557;1309;21968;-61
2022/12/02 20:57:50;;;;;;;16.30;7.30;;;;;;;5.81;62.17;101632.73;105624;1307;22002;-60
2022/12/02 21:00:18;;;;;;;13.70;6.60;;;;;;;5.83;62.03;101633.31;105576;1308;21952;-60
2022/12/02 21:02:44;;;;;;;17.10;6.80;;;;;;;5.83;61.78;101636.28;105638;1308;21972;-62
2022/12/02 21:05:09;;;;;;;14.20;6.50;;;;;;;5.77;62.16;101635.60;105602;1309;21968;-60
2022/12/02 21:07:36;;;;;;;10.80;5.70;;;;;;;5.74;62.41;101634.28;105714;1308;21963;-61
2022/12/02 21:10:02;;;;;;;12.20;5.60;;;;;;;5.78;62.34;101634.05;105671;1310;21976;-60
2022/12/02 21:12:28;;;;;;;13.60;5.90;;;;;;;5.82;62.05;101633.64;105612;1308;21965;-62
2022/12/02 21:14:53;;;;;;;11.00;5.00;;;;;;;5.82;62.14;101633.46;105660;1310;21975;-62
2022/12/02 21:17:19;;;;;;;15.70;6.40;;;;;;;5.88;61.90;101632.92;105650;1310;22015;-60
2022/12/02 21:19:45;;;;;;;16.60;6.60;;;;;;;5.91;61.93;101636.12;105629;1310;22136;-62
2022/12/02 21:22:11;;;;;;;18.00;6.70;;;;;;;5.89;61.36;101633.14;105643;1309;21962;-63
2022/12/02 21:24:37;;;;;;;11.20;6.30;;;;;;;5.88;61.45;101632.58;105656;1309;22054;-63
2022/12/02 21:27:03;;;;;;;16.80;6.80;;;;;;;5.89;61.48;101632.08;105600;1308;23111;-61
2022/12/02 21:29:31;;;;;;;14.40;5.20;;;;;;;5.89;61.45;101634.86;105587;1301;21984;-61
2022/12/02 21:31:56;;;;;;;15.90;6.60;;;;;;;5.86;61.25;101634.10;105680;1308;21996;-63
2022/12/02 21:34:25;;;;;;;13.40;6.10;;;;;;;5.82;61.27;101629.63;105623;1305;21966;-61
2022/12/02 21:36:50;;;;;;;14.90;5.60;;;;;;;5.79;61.34;101632.33;105564;1310;21967;-64
2022/12/02 21:39:16;;;;;;;14.90;6.70;;;;;;;5.74;61.75;101634.81;105687;1309;22431;-63
2022/12/02 21:41:42;;;;;;;13.80;6.10;;;;;;;5.73;61.70;101637.58;105720;1309;21971;-64
2022/12/02 21:44:07;;;;;;;21.50;7.80;;;;;;;5.73;61.74;101633.73;105659;1308;21987;-61
2022/12/02 21:46:33;;;;;;;17.10;6.90;;;;;;;5.72;61.63;101635.45;105648;1309;21998;-64
2022/12/02 21:48:59;;;;;;;18.90;7.40;;;;;;;5.68;61.76;101635.16;105675;1303;21981;-63
2022/12/02 21:51:26;;;;;;;25.50;8.90;;;;;;;5.66;61.62;101636.67;105644;1309;21970;-62
2022/12/02 21:53:51;;;;;;;20.80;7.90;;;;;;;5.66;61.73;101636.50;105752;1309;21963;-62
2022/12/02 21:56:17;;;;;;;29.40;10.70;;;;;;;5.68;61.65;101634.81;105763;1305;21978;-62
2022/12/02 21:58:43;;;;;;;24.40;9.20;;;;;;;5.68;61.54;101635.52;105722;1309;22018;-60
2022/12/02 22:03:53;;;;;;;25.90;9.60;;;;;;;5.59;61.54;101630.91;105673;1309;21980;-61
2022/12/02 22:06:19;;;;;;;20.50;7.90;;;;;;;5.55;61.48;101630.27;105659;1309;21997;-64
2022/12/02 22:08:45;;;;;;;23.30;8.50;;;;;;;5.53;61.41;101633.86;105639;1309;22952;-63
2022/12/02 22:11:10;;;;;;;18.70;7.90;;;;;;;5.52;61.36;101634.20;105659;1309;22079;-64
2022/12/02 22:13:36;;;;;;;17.80;7.20;;;;;;;5.50;61.37;101637.45;105712;1308;21963;-60
2022/12/02 22:16:02;;;;;;;21.30;8.20;;;;;;;5.53;61.35;101639.79;105646;1309;22006;-62
2022/12/02 22:18:28;;;;;;;14.80;8.30;;;;;;;5.57;61.32;101640.59;105637;1309;21973;-61
2022/12/02 22:20:54;;;;;;;17.20;7.70;;;;;;;5.57;61.22;101640.59;105658;1309;22042;-61
2022/12/02 22:23:19;;;;;;;14.40;6.60;;;;;;;5.56;61.39;101638.64;105717;1309;22006;-61
2022/12/02 22:25:46;;;;;;;15.30;6.80;;;;;;;5.57;61.29;101641.63;105782;1310;22014;-61
2022/12/02 22:28:12;;;;;;;14.60;7.30;;;;;;;5.57;61.37;101637.98;105698;1305;22023;-64
2022/12/02 22:30:37;;;;;;;10.80;5.70;;;;;;;5.55;61.12;101640.89;105638;1307;21963;-61
2022/12/02 22:33:03;;;;;;;10.90;5.10;;;;;;;5.55;61.51;101642.28;105619;1309;23069;-61
2022/12/02 22:35:29;;;;;;;11.50;5.00;;;;;;;5.53;61.57;101643.63;105670;1309;22017;-64
2022/12/02 22:37:55;;;;;;;13.90;6.70;;;;;;;5.50;61.55;101646.86;105835;1307;21983;-63
2022/12/02 22:40:21;;;;;;;12.50;5.10;;;;;;;5.53;61.72;101645.01;105643;1308;21968;-62
2022/12/02 22:42:46;;;;;;;11.60;5.80;;;;;;;5.54;61.48;101642.23;105654;1308;21993;-64
2022/12/02 22:45:12;;;;;;;11.00;4.90;;;;;;;5.51;61.59;101642.52;105594;1306;21981;-63
2022/12/02 22:47:37;;;;;;;11.80;5.00;;;;;;;5.48;61.67;101646.30;105631;1308;22121;-62
2022/12/02 22:50:04;;;;;;;10.80;4.70;;;;;;;5.49;61.75;101646.48;105668;1310;21973;-63
2022/12/02 22:52:30;;;;;;;12.70;5.60;;;;;;;5.49;61.76;101648.05;105753;1306;21970;-64
2022/12/02 22:54:56;;;;;;;9.60;5.40;;;;;;;5.54;61.87;101645.05;105765;1307;21972;-65
